sensor_id;sensor_type;location;lat;lon;timestamp;temperature;humidity
19330;DHT22;9799;48.214;16.388;2023-08-06T00:02:09;17.80;99.90
19330;DHT22;9799;48.214;16.388;2023-08-06T00:05:30;17.70;99.90
19330;DHT22;9799;48.214;16.388;2023-08-06T00:08:51;17.70;99.90
19330;DHT22;9799;48.214;16.388;2023-08-06T00:12:14;17.60;99.90
19330;DHT22;9799;48.214;16.388;2023-08-06T00:15:35;17.60;99.90
19330;DHT22;9799;48.214;16.388;2023-08-06T00:18:56;17.50;99.90
19330;DHT22;9799;48.214;16.388;2023-08-06T00:22:17;17.60;99.90
19330;DHT22;9799;48.214;16.388;2023-08-06T00:25:38;17.60;99.90
19330;DHT22;9799;48.214;16.388;2023-08-06T00:29:01;17.60;99.90
19330;DHT22;9799;48.214;16.388;2023-08-06T00:32:22;17.60;99.90
19330;DHT22;9799;48.214;16.388;2023-08-06T00:35:43;17.60;99.90
19330;DHT22;9799;48.214;16.388;2023-08-06T00:39:04;17.50;99.90
19330;DHT22;9799;48.214;16.388;2023-08-06T00:42:26;17.60;99.90
19330;DHT22;9799;48.214;16.388;2023-08-06T00:45:49;17.50;99.90
19330;DHT22;9799;48.214;16.388;2023-08-06T00:49:10;17.50;99.90
19330;DHT22;9799;48.214;16.388;2023-08-06T00:52:31;17.40;99.90
19330;DHT22;9799;48.214;16.388;2023-08-06T00:55:52;17.40;99.90
19330;DHT22;9799;48.214;16.388;2023-08-06T00:59:14;17.50;99.90
19330;DHT22;9799;48.214;16.388;2023-08-06T01:02:37;17.40;99.90
19330;DHT22;9799;48.214;16.388;2023-08-06T01:05:58;17.40;99.90
19330;DHT22;9799;48.214;16.388;2023-08-06T01:09:28;17.40;99.90
19330;DHT22;9799;48.214;16.388;2023-08-06T01:12:57;17.40;99.90
19330;DHT22;9799;48.214;16.388;2023-08-06T01:16:21;17.40;99.90
19330;DHT22;9799;48.214;16.388;2023-08-06T01:19:44;17.30;99.90
19330;DHT22;9799;48.214;16.388;2023-08-06T01:23:06;17.30;99.90
19330;DHT22;9799;48.214;16.388;2023-08-06T01:26:33;17.30;99.90
19330;DHT22;9799;48.214;16.388;2023-08-06T01:30:03;17.30;99.90
19330;DHT22;9799;48.214;16.388;2023-08-06T01:33:26;17.30;99.90
19330;DHT22;9799;48.214;16.388;2023-08-06T01:36:48;17.20;99.90
19330;DHT22;9799;48.214;16.388;2023-08-06T01:40:13;17.10;99.90
19330;DHT22;9799;48.214;16.388;2023-08-06T01:43:34;17.10;99.90
19330;DHT22;9799;48.214;16.388;2023-08-06T01:46:55;17.10;99.90
19330;DHT22;9799;48.214;16.388;2023-08-06T01:50:16;17.00;99.90
19330;DHT22;9799;48.214;16.388;2023-08-06T01:53:37;17.00;99.90
19330;DHT22;9799;48.214;16.388;2023-08-06T01:57:00;17.00;99.90
19330;DHT22;9799;48.214;16.388;2023-08-06T02:00:21;17.00;99.90
19330;DHT22;9799;48.214;16.388;2023-08-06T02:03:42;17.00;99.90
19330;DHT22;9799;48.214;16.388;2023-08-06T02:07:04;16.90;99.90
19330;DHT22;9799;48.214;16.388;2023-08-06T02:10:25;17.00;99.90
19330;DHT22;9799;48.214;16.388;2023-08-06T02:13:47;16.90;99.90
19330;DHT22;9799;48.214;16.388;2023-08-06T02:17:08;16.90;99.90
19330;DHT22;9799;48.214;16.388;2023-08-06T02:20:30;17.00;99.90
19330;DHT22;9799;48.214;16.388;2023-08-06T02:23:51;16.90;99.90
19330;DHT22;9799;48.214;16.388;2023-08-06T02:27:12;16.90;99.90
19330;DHT22;9799;48.214;16.388;2023-08-06T02:30:34;16.90;99.90
19330;DHT22;9799;48.214;16.388;2023-08-06T02:33:56;16.90;99.90
19330;DHT22;9799;48.214;16.388;2023-08-06T02:37:18;16.90;99.90
19330;DHT22;9799;48.214;16.388;2023-08-06T02:40:43;17.00;99.90
19330;DHT22;9799;48.214;16.388;2023-08-06T02:44:05;16.90;99.90
19330;DHT22;9799;48.214;16.388;2023-08-06T02:47:27;17.00;99.90
19330;DHT22;9799;48.214;16.388;2023-08-06T02:50:48;17.00;99.90
19330;DHT22;9799;48.214;16.388;2023-08-06T02:54:10;17.00;99.90
19330;DHT22;9799;48.214;16.388;2023-08-06T02:57:31;17.00;99.90
19330;DHT22;9799;48.214;16.388;2023-08-06T03:01:03;17.00;99.90
19330;DHT22;9799;48.214;16.388;2023-08-06T03:04:26;16.90;99.90
19330;DHT22;9799;48.214;16.388;2023-08-06T03:07:47;16.90;99.90
19330;DHT22;9799;48.214;16.388;2023-08-06T03:11:08;16.90;99.90
19330;DHT22;9799;48.214;16.388;2023-08-06T03:14:29;17.00;99.90
19330;DHT22;9799;48.214;16.388;2023-08-06T03:17:50;17.00;99.90
19330;DHT22;9799;48.214;16.388;2023-08-06T03:21:13;17.00;99.90
19330;DHT22;9799;48.214;16.388;2023-08-06T03:24:34;17.10;99.90
19330;DHT22;9799;48.214;16.388;2023-08-06T03:27:55;17.10;99.90
19330;DHT22;9799;48.214;16.388;2023-08-06T03:31:16;17.10;99.90
19330;DHT22;9799;48.214;16.388;2023-08-06T03:34:37;17.10;99.90
19330;DHT22;9799;48.214;16.388;2023-08-06T03:38:00;17.20;99.90
19330;DHT22;9799;48.214;16.388;2023-08-06T03:41:21;17.20;99.90
19330;DHT22;9799;48.214;16.388;2023-08-06T03:44:42;17.20;99.90
19330;DHT22;9799;48.214;16.388;2023-08-06T03:48:04;17.30;99.90
19330;DHT22;9799;48.214;16.388;2023-08-06T03:51:25;17.30;99.90
19330;DHT22;9799;48.214;16.388;2023-08-06T03:54:48;17.30;99.90
19330;DHT22;9799;48.214;16.388;2023-08-06T03:58:09;17.40;99.90
19330;DHT22;9799;48.214;16.388;2023-08-06T04:01:30;17.40;99.90
19330;DHT22;9799;48.214;16.388;2023-08-06T04:04:51;17.40;99.90
19330;DHT22;9799;48.214;16.388;2023-08-06T04:08:13;17.40;99.90
19330;DHT22;9799;48.214;16.388;2023-08-06T04:11:36;17.40;99.90
19330;DHT22;9799;48.214;16.388;2023-08-06T04:14:58;17.40;99.90
19330;DHT22;9799;48.214;16.388;2023-08-06T04:18:19;17.40;99.90
19330;DHT22;9799;48.214;16.388;2023-08-06T04:21:40;17.40;99.90
19330;DHT22;9799;48.214;16.388;2023-08-06T04:25:01;17.40;99.90
19330;DHT22;9799;48.214;16.388;2023-08-06T04:28:24;17.40;99.90
19330;DHT22;9799;48.214;16.388;2023-08-06T04:31:45;17.40;99.90
19330;DHT22;9799;48.214;16.388;2023-08-06T04:35:07;17.30;99.90
19330;DHT22;9799;48.214;16.388;2023-08-06T04:38:28;17.30;99.90
19330;DHT22;9799;48.214;16.388;2023-08-06T04:41:49;17.40;99.90
19330;DHT22;9799;48.214;16.388;2023-08-06T04:45:11;17.40;99.90
19330;DHT22;9799;48.214;16.388;2023-08-06T04:48:33;17.30;99.90
19330;DHT22;9799;48.214;16.388;2023-08-06T04:51:54;17.30;99.90
19330;DHT22;9799;48.214;16.388;2023-08-06T04:55:15;17.40;99.90
19330;DHT22;9799;48.214;16.388;2023-08-06T04:58:36;17.40;99.90
19330;DHT22;9799;48.214;16.388;2023-08-06T05:01:59;17.40;99.90
19330;DHT22;9799;48.214;16.388;2023-08-06T05:05:20;17.30;99.90
19330;DHT22;9799;48.214;16.388;2023-08-06T05:08:41;17.40;99.90
19330;DHT22;9799;48.214;16.388;2023-08-06T05:12:04;17.40;99.90
19330;DHT22;9799;48.214;16.388;2023-08-06T05:15:25;17.40;99.90
19330;DHT22;9799;48.214;16.388;2023-08-06T05:18:48;17.40;99.90
19330;DHT22;9799;48.214;16.388;2023-08-06T05:22:09;17.40;99.90
19330;DHT22;9799;48.214;16.388;2023-08-06T05:25:30;17.40;99.90
19330;DHT22;9799;48.214;16.388;2023-08-06T05:28:51;17.50;99.90
19330;DHT22;9799;48.214;16.388;2023-08-06T05:32:12;17.50;99.90
19330;DHT22;9799;48.214;16.388;2023-08-06T05:35:35;17.50;99.90
19330;DHT22;9799;48.214;16.388;2023-08-06T05:38:56;17.50;99.90
19330;DHT22;9799;48.214;16.388;2023-08-06T05:42:17;17.50;99.90
19330;DHT22;9799;48.214;16.388;2023-08-06T05:45:38;17.50;99.90
19330;DHT22;9799;48.214;16.388;2023-08-06T05:49:00;17.60;99.90
19330;DHT22;9799;48.214;16.388;2023-08-06T05:52:22;17.50;99.90
19330;DHT22;9799;48.214;16.388;2023-08-06T05:55:44;17.50;99.90
19330;DHT22;9799;48.214;16.388;2023-08-06T05:59:05;17.60;99.90
19330;DHT22;9799;48.214;16.388;2023-08-06T06:02:26;17.60;99.90
19330;DHT22;9799;48.214;16.388;2023-08-06T06:05:47;17.60;99.90
19330;DHT22;9799;48.214;16.388;2023-08-06T06:09:10;17.60;99.90
19330;DHT22;9799;48.214;16.388;2023-08-06T06:12:31;17.70;99.90
19330;DHT22;9799;48.214;16.388;2023-08-06T06:15:54;17.70;99.90
19330;DHT22;9799;48.214;16.388;2023-08-06T06:19:15;17.60;99.90
19330;DHT22;9799;48.214;16.388;2023-08-06T06:22:37;17.70;99.90
19330;DHT22;9799;48.214;16.388;2023-08-06T06:25:59;17.70;99.90
19330;DHT22;9799;48.214;16.388;2023-08-06T06:29:21;17.70;99.90
19330;DHT22;9799;48.214;16.388;2023-08-06T06:32:42;17.70;99.90
19330;DHT22;9799;48.214;16.388;2023-08-06T06:36:03;17.80;99.90
19330;DHT22;9799;48.214;16.388;2023-08-06T06:39:24;17.80;99.90
19330;DHT22;9799;48.214;16.388;2023-08-06T06:42:47;17.80;99.90
19330;DHT22;9799;48.214;16.388;2023-08-06T06:46:08;17.90;99.90
19330;DHT22;9799;48.214;16.388;2023-08-06T06:49:29;17.90;99.90
19330;DHT22;9799;48.214;16.388;2023-08-06T06:52:50;17.90;99.90
19330;DHT22;9799;48.214;16.388;2023-08-06T06:56:12;18.00;99.90
19330;DHT22;9799;48.214;16.388;2023-08-06T06:59:34;18.00;99.90
19330;DHT22;9799;48.214;16.388;2023-08-06T07:02:55;18.00;99.90
19330;DHT22;9799;48.214;16.388;2023-08-06T07:06:27;18.10;99.90
19330;DHT22;9799;48.214;16.388;2023-08-06T07:09:48;18.10;99.90
19330;DHT22;9799;48.214;16.388;2023-08-06T07:13:09;18.10;99.90
19330;DHT22;9799;48.214;16.388;2023-08-06T07:16:32;18.10;99.90
19330;DHT22;9799;48.214;16.388;2023-08-06T07:19:54;18.10;99.90
19330;DHT22;9799;48.214;16.388;2023-08-06T07:23:15;18.00;99.90
19330;DHT22;9799;48.214;16.388;2023-08-06T07:26:36;18.10;99.90
19330;DHT22;9799;48.214;16.388;2023-08-06T07:29:57;18.10;99.90
19330;DHT22;9799;48.214;16.388;2023-08-06T07:33:20;18.10;99.90
19330;DHT22;9799;48.214;16.388;2023-08-06T07:36:43;18.20;99.90
19330;DHT22;9799;48.214;16.388;2023-08-06T07:40:05;18.30;99.90
19330;DHT22;9799;48.214;16.388;2023-08-06T07:43:27;18.30;99.90
19330;DHT22;9799;48.214;16.388;2023-08-06T07:46:48;18.20;99.90
19330;DHT22;9799;48.214;16.388;2023-08-06T07:50:10;18.20;99.90
19330;DHT22;9799;48.214;16.388;2023-08-06T07:53:31;18.20;99.90
19330;DHT22;9799;48.214;16.388;2023-08-06T07:56:53;18.20;99.90
19330;DHT22;9799;48.214;16.388;2023-08-06T08:00:14;18.20;99.90
19330;DHT22;9799;48.214;16.388;2023-08-06T08:03:35;18.10;99.90
19330;DHT22;9799;48.214;16.388;2023-08-06T08:06:57;18.10;99.90
19330;DHT22;9799;48.214;16.388;2023-08-06T08:10:19;18.10;99.90
19330;DHT22;9799;48.214;16.388;2023-08-06T08:13:40;18.20;99.90
19330;DHT22;9799;48.214;16.388;2023-08-06T08:17:01;18.20;99.90
19330;DHT22;9799;48.214;16.388;2023-08-06T08:20:23;18.20;99.90
19330;DHT22;9799;48.214;16.388;2023-08-06T08:23:45;18.20;99.90
19330;DHT22;9799;48.214;16.388;2023-08-06T08:27:07;18.20;99.90
19330;DHT22;9799;48.214;16.388;2023-08-06T08:30:28;18.30;99.90
19330;DHT22;9799;48.214;16.388;2023-08-06T08:33:49;18.20;99.90
19330;DHT22;9799;48.214;16.388;2023-08-06T08:37:12;18.20;99.90
19330;DHT22;9799;48.214;16.388;2023-08-06T08:40:38;18.30;99.90
19330;DHT22;9799;48.214;16.388;2023-08-06T08:44:01;18.30;99.90
19330;DHT22;9799;48.214;16.388;2023-08-06T08:47:23;18.30;99.90
19330;DHT22;9799;48.214;16.388;2023-08-06T08:50:45;18.30;99.90
19330;DHT22;9799;48.214;16.388;2023-08-06T08:54:07;18.40;99.90
19330;DHT22;9799;48.214;16.388;2023-08-06T08:57:31;18.50;99.90
19330;DHT22;9799;48.214;16.388;2023-08-06T09:00:53;18.50;99.90
19330;DHT22;9799;48.214;16.388;2023-08-06T09:04:14;18.50;99.90
19330;DHT22;9799;48.214;16.388;2023-08-06T09:07:41;18.50;99.90
19330;DHT22;9799;48.214;16.388;2023-08-06T09:11:03;18.60;99.90
19330;DHT22;9799;48.214;16.388;2023-08-06T09:14:26;18.60;99.90
19330;DHT22;9799;48.214;16.388;2023-08-06T09:17:48;18.50;99.90
19330;DHT22;9799;48.214;16.388;2023-08-06T09:21:14;18.50;99.90
19330;DHT22;9799;48.214;16.388;2023-08-06T09:24:38;18.40;99.90
19330;DHT22;9799;48.214;16.388;2023-08-06T09:28:00;18.40;99.90
19330;DHT22;9799;48.214;16.388;2023-08-06T09:31:22;18.30;99.90
19330;DHT22;9799;48.214;16.388;2023-08-06T09:34:43;18.40;99.90
19330;DHT22;9799;48.214;16.388;2023-08-06T09:38:05;18.30;99.90
19330;DHT22;9799;48.214;16.388;2023-08-06T09:41:28;18.30;99.90
19330;DHT22;9799;48.214;16.388;2023-08-06T09:44:49;18.40;99.90
19330;DHT22;9799;48.214;16.388;2023-08-06T09:48:11;18.40;99.90
19330;DHT22;9799;48.214;16.388;2023-08-06T09:51:33;18.40;99.90
19330;DHT22;9799;48.214;16.388;2023-08-06T09:54:54;18.30;99.90
19330;DHT22;9799;48.214;16.388;2023-08-06T09:58:16;18.30;99.90
19330;DHT22;9799;48.214;16.388;2023-08-06T10:01:37;18.40;99.90
19330;DHT22;9799;48.214;16.388;2023-08-06T10:05:00;18.50;99.90
19330;DHT22;9799;48.214;16.388;2023-08-06T10:08:21;18.50;99.90
19330;DHT22;9799;48.214;16.388;2023-08-06T10:11:43;18.60;99.90
19330;DHT22;9799;48.214;16.388;2023-08-06T10:15:11;18.60;99.90
19330;DHT22;9799;48.214;16.388;2023-08-06T10:18:33;18.60;99.90
19330;DHT22;9799;48.214;16.388;2023-08-06T10:22:11;18.70;99.90
19330;DHT22;9799;48.214;16.388;2023-08-06T10:25:33;18.70;99.90
19330;DHT22;9799;48.214;16.388;2023-08-06T10:28:55;18.70;99.90
19330;DHT22;9799;48.214;16.388;2023-08-06T10:32:16;18.80;99.90
19330;DHT22;9799;48.214;16.388;2023-08-06T10:35:41;18.70;99.90
19330;DHT22;9799;48.214;16.388;2023-08-06T10:39:05;18.80;99.90
19330;DHT22;9799;48.214;16.388;2023-08-06T10:42:28;18.80;99.90
19330;DHT22;9799;48.214;16.388;2023-08-06T10:45:50;18.70;99.90
19330;DHT22;9799;48.214;16.388;2023-08-06T10:49:12;18.80;99.90
19330;DHT22;9799;48.214;16.388;2023-08-06T10:52:34;18.70;99.90
19330;DHT22;9799;48.214;16.388;2023-08-06T10:55:58;18.80;99.90
19330;DHT22;9799;48.214;16.388;2023-08-06T10:59:20;18.80;99.90
19330;DHT22;9799;48.214;16.388;2023-08-06T11:02:42;18.80;99.90
19330;DHT22;9799;48.214;16.388;2023-08-06T11:06:03;18.70;99.90
19330;DHT22;9799;48.214;16.388;2023-08-06T11:09:25;18.80;99.90
19330;DHT22;9799;48.214;16.388;2023-08-06T11:12:47;18.70;99.90
19330;DHT22;9799;48.214;16.388;2023-08-06T11:16:10;18.70;99.90
19330;DHT22;9799;48.214;16.388;2023-08-06T11:19:31;18.80;99.90
19330;DHT22;9799;48.214;16.388;2023-08-06T11:22:52;18.70;99.90
19330;DHT22;9799;48.214;16.388;2023-08-06T11:26:18;18.70;99.90
19330;DHT22;9799;48.214;16.388;2023-08-06T11:29:41;18.50;99.90
19330;DHT22;9799;48.214;16.388;2023-08-06T11:33:03;18.40;99.90
19330;DHT22;9799;48.214;16.388;2023-08-06T11:36:36;18.30;99.90
19330;DHT22;9799;48.214;16.388;2023-08-06T11:40:00;18.30;99.90
19330;DHT22;9799;48.214;16.388;2023-08-06T11:43:22;18.40;99.90
19330;DHT22;9799;48.214;16.388;2023-08-06T11:46:54;18.40;99.90
19330;DHT22;9799;48.214;16.388;2023-08-06T11:50:22;18.30;99.90
19330;DHT22;9799;48.214;16.388;2023-08-06T11:53:48;18.30;99.90
19330;DHT22;9799;48.214;16.388;2023-08-06T11:57:10;18.40;99.90
19330;DHT22;9799;48.214;16.388;2023-08-06T12:00:31;18.40;99.90
19330;DHT22;9799;48.214;16.388;2023-08-06T12:03:58;18.30;99.90
19330;DHT22;9799;48.214;16.388;2023-08-06T12:07:19;18.30;99.90
19330;DHT22;9799;48.214;16.388;2023-08-06T12:10:40;18.30;99.90
19330;DHT22;9799;48.214;16.388;2023-08-06T12:14:01;18.30;99.90
19330;DHT22;9799;48.214;16.388;2023-08-06T12:17:23;18.30;99.90
19330;DHT22;9799;48.214;16.388;2023-08-06T12:20:46;18.30;99.90
19330;DHT22;9799;48.214;16.388;2023-08-06T12:24:07;18.30;99.90
19330;DHT22;9799;48.214;16.388;2023-08-06T12:27:29;18.30;99.90
19330;DHT22;9799;48.214;16.388;2023-08-06T12:30:51;18.30;99.90
19330;DHT22;9799;48.214;16.388;2023-08-06T12:34:14;18.30;99.90
19330;DHT22;9799;48.214;16.388;2023-08-06T12:37:37;18.30;99.90
19330;DHT22;9799;48.214;16.388;2023-08-06T12:40:59;18.50;99.90
19330;DHT22;9799;48.214;16.388;2023-08-06T12:44:20;18.40;99.90
19330;DHT22;9799;48.214;16.388;2023-08-06T12:47:41;18.50;99.90
19330;DHT22;9799;48.214;16.388;2023-08-06T12:51:02;18.50;99.90
19330;DHT22;9799;48.214;16.388;2023-08-06T12:54:25;18.60;99.90
19330;DHT22;9799;48.214;16.388;2023-08-06T12:57:46;18.70;99.90
19330;DHT22;9799;48.214;16.388;2023-08-06T13:01:07;18.60;99.90
19330;DHT22;9799;48.214;16.388;2023-08-06T13:04:29;18.60;99.90
19330;DHT22;9799;48.214;16.388;2023-08-06T13:07:51;18.70;99.90
19330;DHT22;9799;48.214;16.388;2023-08-06T13:11:15;18.70;99.90
19330;DHT22;9799;48.214;16.388;2023-08-06T13:14:37;18.80;99.90
19330;DHT22;9799;48.214;16.388;2023-08-06T13:18:00;18.90;99.90
19330;DHT22;9799;48.214;16.388;2023-08-06T13:21:21;18.90;99.90
19330;DHT22;9799;48.214;16.388;2023-08-06T13:24:43;18.90;99.90
19330;DHT22;9799;48.214;16.388;2023-08-06T13:28:07;19.00;99.90
19330;DHT22;9799;48.214;16.388;2023-08-06T13:31:30;19.20;99.90
19330;DHT22;9799;48.214;16.388;2023-08-06T13:34:51;19.30;99.90
19330;DHT22;9799;48.214;16.388;2023-08-06T13:38:14;19.30;99.90
19330;DHT22;9799;48.214;16.388;2023-08-06T13:41:37;19.40;99.90
19330;DHT22;9799;48.214;16.388;2023-08-06T13:45:02;19.40;99.90
19330;DHT22;9799;48.214;16.388;2023-08-06T13:48:24;19.50;99.90
19330;DHT22;9799;48.214;16.388;2023-08-06T13:51:47;19.60;99.90
19330;DHT22;9799;48.214;16.388;2023-08-06T13:55:09;19.60;99.90
19330;DHT22;9799;48.214;16.388;2023-08-06T13:58:32;19.70;99.90
19330;DHT22;9799;48.214;16.388;2023-08-06T14:01:55;19.70;99.90
19330;DHT22;9799;48.214;16.388;2023-08-06T14:05:20;19.70;99.90
19330;DHT22;9799;48.214;16.388;2023-08-06T14:08:41;19.70;99.90
19330;DHT22;9799;48.214;16.388;2023-08-06T14:12:03;19.80;99.90
19330;DHT22;9799;48.214;16.388;2023-08-06T14:15:25;19.80;99.90
19330;DHT22;9799;48.214;16.388;2023-08-06T14:18:48;19.90;99.90
19330;DHT22;9799;48.214;16.388;2023-08-06T14:22:10;19.90;99.90
19330;DHT22;9799;48.214;16.388;2023-08-06T14:25:33;20.00;99.90
19330;DHT22;9799;48.214;16.388;2023-08-06T14:28:55;20.00;99.90
19330;DHT22;9799;48.214;16.388;2023-08-06T14:32:18;20.10;99.90
19330;DHT22;9799;48.214;16.388;2023-08-06T14:35:41;20.10;99.90
19330;DHT22;9799;48.214;16.388;2023-08-06T14:39:05;20.10;99.90
19330;DHT22;9799;48.214;16.388;2023-08-06T14:42:27;20.00;99.90
19330;DHT22;9799;48.214;16.388;2023-08-06T14:45:49;19.80;99.90
19330;DHT22;9799;48.214;16.388;2023-08-06T14:49:12;19.80;99.90
19330;DHT22;9799;48.214;16.388;2023-08-06T14:52:35;19.70;99.90
19330;DHT22;9799;48.214;16.388;2023-08-06T14:55:58;19.40;99.90
19330;DHT22;9799;48.214;16.388;2023-08-06T14:59:20;19.20;99.90
19330;DHT22;9799;48.214;16.388;2023-08-06T15:02:42;19.00;99.90
19330;DHT22;9799;48.214;16.388;2023-08-06T15:06:04;18.90;99.90
19330;DHT22;9799;48.214;16.388;2023-08-06T15:09:26;18.90;99.90
19330;DHT22;9799;48.214;16.388;2023-08-06T15:12:49;18.90;99.90
19330;DHT22;9799;48.214;16.388;2023-08-06T15:16:11;18.90;99.90
19330;DHT22;9799;48.214;16.388;2023-08-06T15:19:33;18.80;99.90
19330;DHT22;9799;48.214;16.388;2023-08-06T15:22:56;18.90;99.90
19330;DHT22;9799;48.214;16.388;2023-08-06T15:26:20;18.90;99.90
19330;DHT22;9799;48.214;16.388;2023-08-06T15:29:42;18.80;99.90
19330;DHT22;9799;48.214;16.388;2023-08-06T15:33:04;18.90;99.90
19330;DHT22;9799;48.214;16.388;2023-08-06T15:36:29;18.90;99.90
19330;DHT22;9799;48.214;16.388;2023-08-06T15:39:52;19.00;99.90
19330;DHT22;9799;48.214;16.388;2023-08-06T15:43:15;19.00;99.90
19330;DHT22;9799;48.214;16.388;2023-08-06T15:46:37;19.10;99.90
19330;DHT22;9799;48.214;16.388;2023-08-06T15:49:59;19.10;99.90
19330;DHT22;9799;48.214;16.388;2023-08-06T15:53:21;19.20;99.90
19330;DHT22;9799;48.214;16.388;2023-08-06T15:56:43;19.30;99.90
19330;DHT22;9799;48.214;16.388;2023-08-06T16:00:08;19.40;99.90
19330;DHT22;9799;48.214;16.388;2023-08-06T16:03:30;19.60;99.90
19330;DHT22;9799;48.214;16.388;2023-08-06T16:06:52;19.70;99.90
19330;DHT22;9799;48.214;16.388;2023-08-06T16:10:14;19.80;99.90
19330;DHT22;9799;48.214;16.388;2023-08-06T16:13:36;19.80;99.90
19330;DHT22;9799;48.214;16.388;2023-08-06T16:17:00;19.80;99.90
19330;DHT22;9799;48.214;16.388;2023-08-06T16:20:22;19.80;99.90
19330;DHT22;9799;48.214;16.388;2023-08-06T16:23:44;19.70;99.90
19330;DHT22;9799;48.214;16.388;2023-08-06T16:27:06;19.60;99.90
19330;DHT22;9799;48.214;16.388;2023-08-06T16:30:29;19.50;99.90
19330;DHT22;9799;48.214;16.388;2023-08-06T16:33:55;19.40;99.90
19330;DHT22;9799;48.214;16.388;2023-08-06T16:37:17;19.30;99.90
19330;DHT22;9799;48.214;16.388;2023-08-06T16:40:39;19.30;99.90
19330;DHT22;9799;48.214;16.388;2023-08-06T16:44:00;19.20;99.90
19330;DHT22;9799;48.214;16.388;2023-08-06T16:47:23;19.20;99.90
19330;DHT22;9799;48.214;16.388;2023-08-06T16:50:48;19.10;99.90
19330;DHT22;9799;48.214;16.388;2023-08-06T16:54:10;19.10;99.90
19330;DHT22;9799;48.214;16.388;2023-08-06T16:57:32;19.00;99.90
19330;DHT22;9799;48.214;16.388;2023-08-06T17:00:54;18.90;99.90
19330;DHT22;9799;48.214;16.388;2023-08-06T17:04:20;18.90;99.90
19330;DHT22;9799;48.214;16.388;2023-08-06T17:07:44;18.80;99.90
19330;DHT22;9799;48.214;16.388;2023-08-06T17:11:10;18.70;99.90
19330;DHT22;9799;48.214;16.388;2023-08-06T17:14:31;18.70;99.90
19330;DHT22;9799;48.214;16.388;2023-08-06T17:17:56;18.70;99.90
19330;DHT22;9799;48.214;16.388;2023-08-06T17:21:17;18.70;99.90
19330;DHT22;9799;48.214;16.388;2023-08-06T17:24:42;18.60;99.90
19330;DHT22;9799;48.214;16.388;2023-08-06T17:28:04;18.60;99.90
19330;DHT22;9799;48.214;16.388;2023-08-06T17:31:26;18.60;99.90
19330;DHT22;9799;48.214;16.388;2023-08-06T17:34:47;18.50;99.90
19330;DHT22;9799;48.214;16.388;2023-08-06T17:38:09;18.50;99.90
19330;DHT22;9799;48.214;16.388;2023-08-06T17:41:33;18.50;99.90
19330;DHT22;9799;48.214;16.388;2023-08-06T17:44:54;18.50;99.90
19330;DHT22;9799;48.214;16.388;2023-08-06T17:48:17;18.50;99.90
19330;DHT22;9799;48.214;16.388;2023-08-06T17:51:39;18.40;99.90
19330;DHT22;9799;48.214;16.388;2023-08-06T17:55:01;18.40;99.90
19330;DHT22;9799;48.214;16.388;2023-08-06T17:58:26;18.40;99.90
19330;DHT22;9799;48.214;16.388;2023-08-06T18:01:48;18.30;99.90
19330;DHT22;9799;48.214;16.388;2023-08-06T18:05:11;18.30;99.90
19330;DHT22;9799;48.214;16.388;2023-08-06T18:08:35;18.30;99.90
19330;DHT22;9799;48.214;16.388;2023-08-06T18:11:56;18.30;99.90
19330;DHT22;9799;48.214;16.388;2023-08-06T18:15:20;18.20;99.90
19330;DHT22;9799;48.214;16.388;2023-08-06T18:18:43;18.20;99.90
19330;DHT22;9799;48.214;16.388;2023-08-06T18:22:05;18.20;99.90
19330;DHT22;9799;48.214;16.388;2023-08-06T18:25:27;18.20;99.90
19330;DHT22;9799;48.214;16.388;2023-08-06T18:28:49;18.20;99.90
19330;DHT22;9799;48.214;16.388;2023-08-06T18:32:13;18.20;99.90
19330;DHT22;9799;48.214;16.388;2023-08-06T18:35:35;18.10;99.90
19330;DHT22;9799;48.214;16.388;2023-08-06T18:38:59;18.10;99.90
19330;DHT22;9799;48.214;16.388;2023-08-06T18:42:22;18.10;99.90
19330;DHT22;9799;48.214;16.388;2023-08-06T18:45:46;18.10;99.90
19330;DHT22;9799;48.214;16.388;2023-08-06T18:49:10;18.10;99.90
19330;DHT22;9799;48.214;16.388;2023-08-06T18:52:32;18.10;99.90
19330;DHT22;9799;48.214;16.388;2023-08-06T18:55:56;18.00;99.90
19330;DHT22;9799;48.214;16.388;2023-08-06T18:59:18;18.00;99.90
19330;DHT22;9799;48.214;16.388;2023-08-06T19:02:42;18.00;99.90
19330;DHT22;9799;48.214;16.388;2023-08-06T19:06:06;18.00;99.90
19330;DHT22;9799;48.214;16.388;2023-08-06T19:09:28;18.00;99.90
19330;DHT22;9799;48.214;16.388;2023-08-06T19:12:51;17.90;99.90
19330;DHT22;9799;48.214;16.388;2023-08-06T19:16:14;17.90;99.90
19330;DHT22;9799;48.214;16.388;2023-08-06T19:19:36;17.80;99.90
19330;DHT22;9799;48.214;16.388;2023-08-06T19:23:02;17.70;99.90
19330;DHT22;9799;48.214;16.388;2023-08-06T19:26:27;17.60;99.90
19330;DHT22;9799;48.214;16.388;2023-08-06T19:29:52;17.60;99.90
19330;DHT22;9799;48.214;16.388;2023-08-06T19:33:14;17.50;99.90
19330;DHT22;9799;48.214;16.388;2023-08-06T19:36:37;17.50;99.90
19330;DHT22;9799;48.214;16.388;2023-08-06T19:40:00;17.40;99.90
19330;DHT22;9799;48.214;16.388;2023-08-06T19:43:22;17.30;99.90
19330;DHT22;9799;48.214;16.388;2023-08-06T19:46:45;17.30;99.90
19330;DHT22;9799;48.214;16.388;2023-08-06T19:50:08;17.20;99.90
19330;DHT22;9799;48.214;16.388;2023-08-06T19:53:31;17.30;99.90
19330;DHT22;9799;48.214;16.388;2023-08-06T19:56:55;17.30;99.90
19330;DHT22;9799;48.214;16.388;2023-08-06T20:00:17;17.20;99.90
19330;DHT22;9799;48.214;16.388;2023-08-06T20:03:39;17.10;99.90
19330;DHT22;9799;48.214;16.388;2023-08-06T20:07:04;17.10;99.90
19330;DHT22;9799;48.214;16.388;2023-08-06T20:10:26;17.10;99.90
19330;DHT22;9799;48.214;16.388;2023-08-06T20:13:51;17.10;99.90
19330;DHT22;9799;48.214;16.388;2023-08-06T20:17:14;17.20;99.90
19330;DHT22;9799;48.214;16.388;2023-08-06T20:20:38;17.10;99.90
19330;DHT22;9799;48.214;16.388;2023-08-06T20:24:00;17.00;99.90
19330;DHT22;9799;48.214;16.388;2023-08-06T20:27:25;17.10;99.90
19330;DHT22;9799;48.214;16.388;2023-08-06T20:30:49;17.10;99.90
19330;DHT22;9799;48.214;16.388;2023-08-06T20:34:12;17.00;99.90
19330;DHT22;9799;48.214;16.388;2023-08-06T20:37:34;17.00;99.90
19330;DHT22;9799;48.214;16.388;2023-08-06T20:41:00;17.00;99.90
19330;DHT22;9799;48.214;16.388;2023-08-06T20:44:22;17.00;99.90
19330;DHT22;9799;48.214;16.388;2023-08-06T20:47:46;17.00;99.90
19330;DHT22;9799;48.214;16.388;2023-08-06T20:51:07;16.90;99.90
19330;DHT22;9799;48.214;16.388;2023-08-06T20:54:30;16.90;99.90
19330;DHT22;9799;48.214;16.388;2023-08-06T20:57:51;16.90;99.90
19330;DHT22;9799;48.214;16.388;2023-08-06T21:01:13;16.80;99.90
19330;DHT22;9799;48.214;16.388;2023-08-06T21:04:35;16.80;99.90
19330;DHT22;9799;48.214;16.388;2023-08-06T21:07:57;16.80;99.90
19330;DHT22;9799;48.214;16.388;2023-08-06T21:11:18;16.80;99.90
19330;DHT22;9799;48.214;16.388;2023-08-06T21:14:39;16.80;99.90
19330;DHT22;9799;48.214;16.388;2023-08-06T21:18:00;16.80;99.90